sensor_id;sensor_type;location;lat;lon;timestamp;P1;durP1;ratioP1;P2;durP2;ratioP2
3379;SDS011;1703;51.964;7.642;2022-11-15T00:01:14;16.60;;;9.53;;
3379;SDS011;1703;51.964;7.642;2022-11-15T00:04:00;11.90;;;9.50;;
3379;SDS011;1703;51.964;7.642;2022-11-15T00:06:46;13.23;;;9.60;;
3379;SDS011;1703;51.964;7.642;2022-11-15T00:09:32;16.20;;;9.73;;
3379;SDS011;1703;51.964;7.642;2022-11-15T00:12:17;13.63;;;9.40;;
3379;SDS011;1703;51.964;7.642;2022-11-15T00:15:03;12.47;;;9.53;;
3379;SDS011;1703;51.964;7.642;2022-11-15T00:17:49;11.50;;;8.67;;
3379;SDS011;1703;51.964;7.642;2022-11-15T00:20:34;13.70;;;9.63;;
3379;SDS011;1703;51.964;7.642;2022-11-15T00:23:21;15.03;;;10.10;;
3379;SDS011;1703;51.964;7.642;2022-11-15T00:26:08;12.63;;;8.90;;
3379;SDS011;1703;51.964;7.642;2022-11-15T00:28:56;13.40;;;9.60;;
3379;SDS011;1703;51.964;7.642;2022-11-15T00:31:42;13.80;;;9.77;;
3379;SDS011;1703;51.964;7.642;2022-11-15T00:34:27;13.70;;;9.40;;
3379;SDS011;1703;51.964;7.642;2022-11-15T00:37:13;15.77;;;8.70;;
3379;SDS011;1703;51.964;7.642;2022-11-15T00:39:59;13.67;;;8.27;;
3379;SDS011;1703;51.964;7.642;2022-11-15T00:42:45;13.17;;;8.30;;
3379;SDS011;1703;51.964;7.642;2022-11-15T00:45:31;13.93;;;9.93;;
3379;SDS011;1703;51.964;7.642;2022-11-15T00:48:16;10.27;;;7.87;;
3379;SDS011;1703;51.964;7.642;2022-11-15T00:51:02;13.73;;;8.63;;
3379;SDS011;1703;51.964;7.642;2022-11-15T00:53:47;9.70;;;7.53;;
3379;SDS011;1703;51.964;7.642;2022-11-15T00:56:34;16.17;;;9.20;;
3379;SDS011;1703;51.964;7.642;2022-11-15T00:59:19;11.20;;;8.10;;
3379;SDS011;1703;51.964;7.642;2022-11-15T01:02:04;13.47;;;9.30;;
3379;SDS011;1703;51.964;7.642;2022-11-15T01:04:50;13.90;;;8.87;;
3379;SDS011;1703;51.964;7.642;2022-11-15T01:07:35;11.77;;;9.40;;
3379;SDS011;1703;51.964;7.642;2022-11-15T01:10:21;9.90;;;8.37;;
3379;SDS011;1703;51.964;7.642;2022-11-15T01:13:08;11.20;;;9.07;;
3379;SDS011;1703;51.964;7.642;2022-11-15T01:15:53;19.83;;;9.90;;
3379;SDS011;1703;51.964;7.642;2022-11-15T01:18:39;11.87;;;8.03;;
3379;SDS011;1703;51.964;7.642;2022-11-15T01:21:25;9.43;;;6.87;;
3379;SDS011;1703;51.964;7.642;2022-11-15T01:24:11;11.03;;;7.77;;
3379;SDS011;1703;51.964;7.642;2022-11-15T01:26:57;11.67;;;8.23;;
3379;SDS011;1703;51.964;7.642;2022-11-15T01:29:44;14.20;;;7.77;;
3379;SDS011;1703;51.964;7.642;2022-11-15T01:32:29;13.90;;;8.60;;
3379;SDS011;1703;51.964;7.642;2022-11-15T01:35:15;14.40;;;8.90;;
3379;SDS011;1703;51.964;7.642;2022-11-15T01:38:00;10.70;;;8.40;;
3379;SDS011;1703;51.964;7.642;2022-11-15T01:40:45;12.80;;;9.30;;
3379;SDS011;1703;51.964;7.642;2022-11-15T01:43:31;13.37;;;7.83;;
3379;SDS011;1703;51.964;7.642;2022-11-15T01:46:27;11.70;;;8.90;;
3379;SDS011;1703;51.964;7.642;2022-11-15T01:49:16;11.90;;;7.50;;
3379;SDS011;1703;51.964;7.642;2022-11-15T01:52:05;12.00;;;8.70;;
3379;SDS011;1703;51.964;7.642;2022-11-15T01:54:53;11.20;;;7.90;;
3379;SDS011;1703;51.964;7.642;2022-11-15T01:57:45;8.23;;;6.90;;
3379;SDS011;1703;51.964;7.642;2022-11-15T02:00:33;12.20;;;7.50;;
3379;SDS011;1703;51.964;7.642;2022-11-15T02:03:20;13.57;;;8.27;;
3379;SDS011;1703;51.964;7.642;2022-11-15T02:06:10;11.43;;;8.47;;
3379;SDS011;1703;51.964;7.642;2022-11-15T02:08:55;10.10;;;7.70;;
3379;SDS011;1703;51.964;7.642;2022-11-15T02:11:41;11.27;;;8.27;;
3379;SDS011;1703;51.964;7.642;2022-11-15T02:14:28;10.73;;;7.20;;
3379;SDS011;1703;51.964;7.642;2022-11-15T02:17:32;12.93;;;7.40;;
3379;SDS011;1703;51.964;7.642;2022-11-15T02:23:45;15.43;;;8.87;;
3379;SDS011;1703;51.964;7.642;2022-11-15T02:30:03;20.03;;;9.43;;
3379;SDS011;1703;51.964;7.642;2022-11-15T02:33:21;10.20;;;7.93;;
3379;SDS011;1703;51.964;7.642;2022-11-15T02:36:18;12.20;;;7.73;;
3379;SDS011;1703;51.964;7.642;2022-11-15T02:39:14;11.60;;;9.10;;
3379;SDS011;1703;51.964;7.642;2022-11-15T02:42:07;14.23;;;8.67;;
3379;SDS011;1703;51.964;7.642;2022-11-15T02:45:17;9.67;;;8.00;;
3379;SDS011;1703;51.964;7.642;2022-11-15T02:48:10;9.87;;;7.93;;
3379;SDS011;1703;51.964;7.642;2022-11-15T02:50:58;9.63;;;8.57;;
3379;SDS011;1703;51.964;7.642;2022-11-15T02:53:45;12.10;;;8.63;;
3379;SDS011;1703;51.964;7.642;2022-11-15T02:56:30;12.53;;;8.50;;
3379;SDS011;1703;51.964;7.642;2022-11-15T02:59:19;11.77;;;8.53;;
3379;SDS011;1703;51.964;7.642;2022-11-15T03:02:23;12.03;;;7.23;;
3379;SDS011;1703;51.964;7.642;2022-11-15T03:05:23;14.37;;;8.07;;
3379;SDS011;1703;51.964;7.642;2022-11-15T03:08:17;12.37;;;8.00;;
3379;SDS011;1703;51.964;7.642;2022-11-15T03:11:07;10.97;;;7.63;;
3379;SDS011;1703;51.964;7.642;2022-11-15T03:13:56;7.67;;;6.87;;
3379;SDS011;1703;51.964;7.642;2022-11-15T03:16:45;13.03;;;8.37;;
3379;SDS011;1703;51.964;7.642;2022-11-15T03:19:37;12.90;;;8.27;;
3379;SDS011;1703;51.964;7.642;2022-11-15T03:22:29;11.47;;;7.40;;
3379;SDS011;1703;51.964;7.642;2022-11-15T03:25:22;12.00;;;7.80;;
3379;SDS011;1703;51.964;7.642;2022-11-15T03:28:11;17.23;;;8.17;;
3379;SDS011;1703;51.964;7.642;2022-11-15T03:30:59;9.17;;;7.87;;
3379;SDS011;1703;51.964;7.642;2022-11-15T03:34:08;9.77;;;8.00;;
3379;SDS011;1703;51.964;7.642;2022-11-15T03:37:00;12.43;;;7.40;;
3379;SDS011;1703;51.964;7.642;2022-11-15T03:39:46;15.83;;;8.57;;
3379;SDS011;1703;51.964;7.642;2022-11-15T03:42:34;10.63;;;8.40;;
3379;SDS011;1703;51.964;7.642;2022-11-15T03:45:26;12.47;;;8.40;;
3379;SDS011;1703;51.964;7.642;2022-11-15T03:48:14;12.77;;;8.00;;
3379;SDS011;1703;51.964;7.642;2022-11-15T03:51:03;12.60;;;8.37;;
3379;SDS011;1703;51.964;7.642;2022-11-15T03:53:49;13.17;;;7.93;;
3379;SDS011;1703;51.964;7.642;2022-11-15T03:56:35;11.10;;;8.47;;
3379;SDS011;1703;51.964;7.642;2022-11-15T03:59:22;9.40;;;8.10;;
3379;SDS011;1703;51.964;7.642;2022-11-15T04:02:07;13.40;;;7.83;;
3379;SDS011;1703;51.964;7.642;2022-11-15T04:04:53;10.33;;;7.53;;
3379;SDS011;1703;51.964;7.642;2022-11-15T04:07:38;11.80;;;8.67;;
3379;SDS011;1703;51.964;7.642;2022-11-15T04:10:24;7.97;;;6.80;;
3379;SDS011;1703;51.964;7.642;2022-11-15T04:13:09;13.00;;;8.00;;
3379;SDS011;1703;51.964;7.642;2022-11-15T04:15:56;14.80;;;8.30;;
3379;SDS011;1703;51.964;7.642;2022-11-15T04:18:42;15.93;;;8.63;;
3379;SDS011;1703;51.964;7.642;2022-11-15T04:21:27;11.00;;;8.40;;
3379;SDS011;1703;51.964;7.642;2022-11-15T04:24:30;19.03;;;9.03;;
3379;SDS011;1703;51.964;7.642;2022-11-15T04:27:16;10.50;;;8.10;;
3379;SDS011;1703;51.964;7.642;2022-11-15T04:30:01;9.90;;;7.87;;
3379;SDS011;1703;51.964;7.642;2022-11-15T04:32:49;12.87;;;9.33;;
3379;SDS011;1703;51.964;7.642;2022-11-15T04:35:34;9.67;;;7.83;;
3379;SDS011;1703;51.964;7.642;2022-11-15T04:38:19;13.77;;;7.70;;
3379;SDS011;1703;51.964;7.642;2022-11-15T04:41:04;12.30;;;8.87;;
3379;SDS011;1703;51.964;7.642;2022-11-15T04:43:49;13.20;;;8.77;;
3379;SDS011;1703;51.964;7.642;2022-11-15T04:46:35;11.97;;;8.30;;
3379;SDS011;1703;51.964;7.642;2022-11-15T04:49:22;13.27;;;7.77;;
3379;SDS011;1703;51.964;7.642;2022-11-15T04:52:07;17.23;;;8.70;;
3379;SDS011;1703;51.964;7.642;2022-11-15T04:54:53;12.03;;;8.60;;
3379;SDS011;1703;51.964;7.642;2022-11-15T04:57:38;12.03;;;7.90;;
3379;SDS011;1703;51.964;7.642;2022-11-15T05:00:24;10.07;;;8.30;;
3379;SDS011;1703;51.964;7.642;2022-11-15T05:03:09;14.67;;;8.20;;
3379;SDS011;1703;51.964;7.642;2022-11-15T05:06:14;17.87;;;8.07;;
3379;SDS011;1703;51.964;7.642;2022-11-15T05:09:00;8.80;;;7.70;;
3379;SDS011;1703;51.964;7.642;2022-11-15T05:11:45;12.70;;;8.60;;
3379;SDS011;1703;51.964;7.642;2022-11-15T05:14:31;8.40;;;7.23;;
3379;SDS011;1703;51.964;7.642;2022-11-15T05:17:17;12.47;;;7.97;;
3379;SDS011;1703;51.964;7.642;2022-11-15T05:20:02;10.60;;;8.17;;
3379;SDS011;1703;51.964;7.642;2022-11-15T05:22:49;13.40;;;8.40;;
3379;SDS011;1703;51.964;7.642;2022-11-15T05:25:35;10.77;;;8.57;;
3379;SDS011;1703;51.964;7.642;2022-11-15T05:28:21;16.83;;;8.07;;
3379;SDS011;1703;51.964;7.642;2022-11-15T05:31:07;12.73;;;8.27;;
3379;SDS011;1703;51.964;7.642;2022-11-15T05:33:54;13.60;;;7.50;;
3379;SDS011;1703;51.964;7.642;2022-11-15T05:36:41;11.70;;;7.93;;
3379;SDS011;1703;51.964;7.642;2022-11-15T05:39:29;10.20;;;7.73;;
3379;SDS011;1703;51.964;7.642;2022-11-15T05:42:15;13.43;;;8.40;;
3379;SDS011;1703;51.964;7.642;2022-11-15T05:45:01;12.47;;;6.27;;
3379;SDS011;1703;51.964;7.642;2022-11-15T05:47:50;15.43;;;7.60;;
3379;SDS011;1703;51.964;7.642;2022-11-15T05:50:38;20.10;;;8.87;;
3379;SDS011;1703;51.964;7.642;2022-11-15T05:53:25;9.77;;;7.93;;
3379;SDS011;1703;51.964;7.642;2022-11-15T05:56:12;11.50;;;7.27;;
3379;SDS011;1703;51.964;7.642;2022-11-15T05:58:58;21.43;;;9.57;;
3379;SDS011;1703;51.964;7.642;2022-11-15T06:01:44;10.47;;;7.33;;
3379;SDS011;1703;51.964;7.642;2022-11-15T06:04:29;11.53;;;7.27;;
3379;SDS011;1703;51.964;7.642;2022-11-15T06:07:15;10.90;;;8.57;;
3379;SDS011;1703;51.964;7.642;2022-11-15T06:10:00;11.83;;;7.70;;
3379;SDS011;1703;51.964;7.642;2022-11-15T06:12:48;16.93;;;9.07;;
3379;SDS011;1703;51.964;7.642;2022-11-15T06:15:41;12.73;;;8.17;;
3379;SDS011;1703;51.964;7.642;2022-11-15T06:18:27;10.77;;;7.90;;
3379;SDS011;1703;51.964;7.642;2022-11-15T06:21:12;11.47;;;8.33;;
3379;SDS011;1703;51.964;7.642;2022-11-15T06:23:57;14.87;;;9.00;;
3379;SDS011;1703;51.964;7.642;2022-11-15T06:26:43;11.70;;;8.17;;
3379;SDS011;1703;51.964;7.642;2022-11-15T06:29:30;11.47;;;9.10;;
3379;SDS011;1703;51.964;7.642;2022-11-15T06:32:15;12.80;;;8.60;;
3379;SDS011;1703;51.964;7.642;2022-11-15T06:35:01;10.70;;;9.40;;
3379;SDS011;1703;51.964;7.642;2022-11-15T06:37:46;11.20;;;8.87;;
3379;SDS011;1703;51.964;7.642;2022-11-15T06:40:33;23.53;;;8.87;;
3379;SDS011;1703;51.964;7.642;2022-11-15T06:43:19;12.03;;;9.20;;
3379;SDS011;1703;51.964;7.642;2022-11-15T06:46:06;13.50;;;8.60;;
3379;SDS011;1703;51.964;7.642;2022-11-15T06:48:52;15.40;;;9.60;;
3379;SDS011;1703;51.964;7.642;2022-11-15T06:51:38;10.73;;;8.33;;
3379;SDS011;1703;51.964;7.642;2022-11-15T06:54:24;10.03;;;8.13;;
3379;SDS011;1703;51.964;7.642;2022-11-15T06:57:09;13.70;;;9.20;;
3379;SDS011;1703;51.964;7.642;2022-11-15T06:59:55;14.77;;;9.40;;
3379;SDS011;1703;51.964;7.642;2022-11-15T07:02:42;23.63;;;9.90;;
3379;SDS011;1703;51.964;7.642;2022-11-15T07:05:27;14.10;;;9.33;;
3379;SDS011;1703;51.964;7.642;2022-11-15T07:08:13;10.90;;;9.10;;
3379;SDS011;1703;51.964;7.642;2022-11-15T07:10:59;14.80;;;9.80;;
3379;SDS011;1703;51.964;7.642;2022-11-15T07:13:45;14.80;;;8.60;;
3379;SDS011;1703;51.964;7.642;2022-11-15T07:16:31;12.87;;;8.43;;
3379;SDS011;1703;51.964;7.642;2022-11-15T07:19:18;11.90;;;9.10;;
3379;SDS011;1703;51.964;7.642;2022-11-15T07:22:03;12.13;;;8.57;;
3379;SDS011;1703;51.964;7.642;2022-11-15T07:24:49;15.03;;;8.20;;
3379;SDS011;1703;51.964;7.642;2022-11-15T07:27:34;16.90;;;8.37;;
3379;SDS011;1703;51.964;7.642;2022-11-15T07:30:20;12.57;;;8.80;;
3379;SDS011;1703;51.964;7.642;2022-11-15T07:33:05;9.93;;;8.47;;
3379;SDS011;1703;51.964;7.642;2022-11-15T07:35:52;8.20;;;7.10;;
3379;SDS011;1703;51.964;7.642;2022-11-15T07:38:38;12.10;;;7.67;;
3379;SDS011;1703;51.964;7.642;2022-11-15T07:41:23;15.30;;;8.20;;
3379;SDS011;1703;51.964;7.642;2022-11-15T07:44:09;10.40;;;7.20;;
3379;SDS011;1703;51.964;7.642;2022-11-15T07:46:54;9.27;;;7.70;;
3379;SDS011;1703;51.964;7.642;2022-11-15T07:49:40;7.50;;;6.80;;
3379;SDS011;1703;51.964;7.642;2022-11-15T07:52:27;12.27;;;6.73;;
3379;SDS011;1703;51.964;7.642;2022-11-15T07:55:12;8.27;;;5.93;;
3379;SDS011;1703;51.964;7.642;2022-11-15T07:58:01;8.83;;;6.70;;
3379;SDS011;1703;51.964;7.642;2022-11-15T08:00:47;14.57;;;7.00;;
3379;SDS011;1703;51.964;7.642;2022-11-15T08:03:33;9.00;;;7.50;;
3379;SDS011;1703;51.964;7.642;2022-11-15T08:06:18;15.80;;;6.40;;
3379;SDS011;1703;51.964;7.642;2022-11-15T08:09:05;7.43;;;6.20;;
3379;SDS011;1703;51.964;7.642;2022-11-15T08:11:50;11.07;;;5.50;;
3379;SDS011;1703;51.964;7.642;2022-11-15T08:14:36;13.07;;;5.77;;
3379;SDS011;1703;51.964;7.642;2022-11-15T08:17:22;12.27;;;5.97;;
3379;SDS011;1703;51.964;7.642;2022-11-15T08:20:08;15.33;;;7.30;;
3379;SDS011;1703;51.964;7.642;2022-11-15T08:22:54;9.57;;;5.43;;
3379;SDS011;1703;51.964;7.642;2022-11-15T08:25:41;5.90;;;5.30;;
3379;SDS011;1703;51.964;7.642;2022-11-15T08:28:28;9.13;;;5.47;;
3379;SDS011;1703;51.964;7.642;2022-11-15T08:31:14;7.23;;;5.07;;
3379;SDS011;1703;51.964;7.642;2022-11-15T08:34:02;4.80;;;4.30;;
3379;SDS011;1703;51.964;7.642;2022-11-15T08:36:47;4.07;;;3.70;;
3379;SDS011;1703;51.964;7.642;2022-11-15T08:39:33;4.30;;;3.73;;
3379;SDS011;1703;51.964;7.642;2022-11-15T08:42:20;6.57;;;4.57;;
3379;SDS011;1703;51.964;7.642;2022-11-15T08:45:05;3.03;;;2.73;;
3379;SDS011;1703;51.964;7.642;2022-11-15T08:47:52;4.57;;;4.00;;
3379;SDS011;1703;51.964;7.642;2022-11-15T08:50:37;6.23;;;4.03;;
3379;SDS011;1703;51.964;7.642;2022-11-15T08:53:23;9.13;;;3.57;;
3379;SDS011;1703;51.964;7.642;2022-11-15T08:56:08;5.40;;;3.27;;
3379;SDS011;1703;51.964;7.642;2022-11-15T08:58:55;5.83;;;4.07;;
3379;SDS011;1703;51.964;7.642;2022-11-15T09:01:41;13.27;;;3.70;;
3379;SDS011;1703;51.964;7.642;2022-11-15T09:04:26;5.37;;;3.33;;
3379;SDS011;1703;51.964;7.642;2022-11-15T09:07:12;5.07;;;4.43;;
3379;SDS011;1703;51.964;7.642;2022-11-15T09:09:58;3.93;;;2.63;;
3379;SDS011;1703;51.964;7.642;2022-11-15T09:12:44;3.00;;;2.43;;
3379;SDS011;1703;51.964;7.642;2022-11-15T09:15:33;3.13;;;2.67;;
3379;SDS011;1703;51.964;7.642;2022-11-15T09:18:18;11.13;;;2.00;;
3379;SDS011;1703;51.964;7.642;2022-11-15T09:21:05;3.33;;;3.03;;
3379;SDS011;1703;51.964;7.642;2022-11-15T09:23:52;3.13;;;2.67;;
3379;SDS011;1703;51.964;7.642;2022-11-15T09:26:38;11.63;;;3.07;;
3379;SDS011;1703;51.964;7.642;2022-11-15T09:29:23;5.57;;;2.83;;
3379;SDS011;1703;51.964;7.642;2022-11-15T09:32:10;12.40;;;5.50;;
3379;SDS011;1703;51.964;7.642;2022-11-15T09:34:57;7.40;;;3.23;;
3379;SDS011;1703;51.964;7.642;2022-11-15T09:37:42;9.00;;;2.70;;
3379;SDS011;1703;51.964;7.642;2022-11-15T09:40:29;9.70;;;2.63;;
3379;SDS011;1703;51.964;7.642;2022-11-15T09:43:29;19.60;;;2.77;;
3379;SDS011;1703;51.964;7.642;2022-11-15T09:46:20;3.03;;;1.70;;
3379;SDS011;1703;51.964;7.642;2022-11-15T09:49:28;5.40;;;2.27;;
3379;SDS011;1703;51.964;7.642;2022-11-15T09:52:10;5.73;;;2.07;;
3379;SDS011;1703;51.964;7.642;2022-11-15T09:54:38;2.90;;;2.07;;
3379;SDS011;1703;51.964;7.642;2022-11-15T09:57:14;2.83;;;1.97;;
3379;SDS011;1703;51.964;7.642;2022-11-15T09:59:46;2.00;;;1.87;;
3379;SDS011;1703;51.964;7.642;2022-11-15T10:02:23;2.73;;;1.93;;
3379;SDS011;1703;51.964;7.642;2022-11-15T10:05:06;3.83;;;1.90;;
3379;SDS011;1703;51.964;7.642;2022-11-15T10:07:37;1.50;;;1.40;;
3379;SDS011;1703;51.964;7.642;2022-11-15T10:10:12;1.50;;;1.40;;
3379;SDS011;1703;51.964;7.642;2022-11-15T10:12:44;1.97;;;1.70;;
3379;SDS011;1703;51.964;7.642;2022-11-15T10:15:14;9.70;;;1.80;;
3379;SDS011;1703;51.964;7.642;2022-11-15T10:18:05;2.13;;;1.77;;
3379;SDS011;1703;51.964;7.642;2022-11-15T10:20:40;2.40;;;1.50;;
3379;SDS011;1703;51.964;7.642;2022-11-15T10:23:13;3.40;;;1.90;;
3379;SDS011;1703;51.964;7.642;2022-11-15T10:25:42;1.87;;;1.77;;
3379;SDS011;1703;51.964;7.642;2022-11-15T10:28:11;3.67;;;1.80;;
3379;SDS011;1703;51.964;7.642;2022-11-15T10:30:43;1.93;;;1.57;;
3379;SDS011;1703;51.964;7.642;2022-11-15T10:33:16;1.83;;;1.70;;
3379;SDS011;1703;51.964;7.642;2022-11-15T10:36:13;7.07;;;2.57;;
3379;SDS011;1703;51.964;7.642;2022-11-15T10:38:53;2.90;;;1.40;;
3379;SDS011;1703;51.964;7.642;2022-11-15T10:41:22;2.47;;;1.50;;
3379;SDS011;1703;51.964;7.642;2022-11-15T10:44:03;4.47;;;1.47;;
3379;SDS011;1703;51.964;7.642;2022-11-15T10:46:44;6.73;;;1.57;;
3379;SDS011;1703;51.964;7.642;2022-11-15T10:49:14;4.13;;;1.53;;
3379;SDS011;1703;51.964;7.642;2022-11-15T10:51:44;3.23;;;1.33;;
3379;SDS011;1703;51.964;7.642;2022-11-15T10:54:14;1.10;;;1.00;;
3379;SDS011;1703;51.964;7.642;2022-11-15T10:56:48;4.70;;;1.67;;
3379;SDS011;1703;51.964;7.642;2022-11-15T10:59:22;2.90;;;1.00;;
3379;SDS011;1703;51.964;7.642;2022-11-15T11:01:53;6.40;;;2.30;;
3379;SDS011;1703;51.964;7.642;2022-11-15T11:04:20;8.20;;;1.53;;
3379;SDS011;1703;51.964;7.642;2022-11-15T11:06:49;1.20;;;1.10;;
3379;SDS011;1703;51.964;7.642;2022-11-15T11:09:28;3.07;;;1.20;;
3379;SDS011;1703;51.964;7.642;2022-11-15T11:11:58;2.33;;;1.10;;
3379;SDS011;1703;51.964;7.642;2022-11-15T11:14:26;3.53;;;1.17;;
3379;SDS011;1703;51.964;7.642;2022-11-15T11:16:59;1.50;;;0.90;;
3379;SDS011;1703;51.964;7.642;2022-11-15T11:19:35;1.57;;;1.03;;
3379;SDS011;1703;51.964;7.642;2022-11-15T11:22:15;1.87;;;1.17;;
3379;SDS011;1703;51.964;7.642;2022-11-15T11:24:49;3.67;;;1.50;;
3379;SDS011;1703;51.964;7.642;2022-11-15T11:27:33;1.50;;;1.20;;
3379;SDS011;1703;51.964;7.642;2022-11-15T11:30:08;3.00;;;1.50;;
3379;SDS011;1703;51.964;7.642;2022-11-15T11:32:42;2.80;;;1.50;;
3379;SDS011;1703;51.964;7.642;2022-11-15T11:35:28;3.37;;;1.27;;
3379;SDS011;1703;51.964;7.642;2022-11-15T11:38:03;5.50;;;1.10;;
3379;SDS011;1703;51.964;7.642;2022-11-15T11:40:51;4.77;;;1.10;;
3379;SDS011;1703;51.964;7.642;2022-11-15T11:43:28;1.00;;;0.90;;
3379;SDS011;1703;51.964;7.642;2022-11-15T11:46:09;6.40;;;1.67;;
3379;SDS011;1703;51.964;7.642;2022-11-15T11:48:47;1.73;;;1.00;;
3379;SDS011;1703;51.964;7.642;2022-11-15T11:51:20;1.77;;;1.17;;
3379;SDS011;1703;51.964;7.642;2022-11-15T11:53:52;1.80;;;0.90;;
3379;SDS011;1703;51.964;7.642;2022-11-15T11:56:24;3.80;;;0.90;;
3379;SDS011;1703;51.964;7.642;2022-11-15T11:58:53;0.73;;;0.70;;
3379;SDS011;1703;51.964;7.642;2022-11-15T12:01:26;1.70;;;1.27;;
3379;SDS011;1703;51.964;7.642;2022-11-15T12:04:01;1.17;;;1.07;;
3379;SDS011;1703;51.964;7.642;2022-11-15T12:06:32;1.07;;;0.90;;
3379;SDS011;1703;51.964;7.642;2022-11-15T12:09:06;1.13;;;0.87;;
3379;SDS011;1703;51.964;7.642;2022-11-15T12:11:43;3.87;;;1.50;;
3379;SDS011;1703;51.964;7.642;2022-11-15T12:14:19;0.80;;;0.80;;
3379;SDS011;1703;51.964;7.642;2022-11-15T12:16:53;6.40;;;1.10;;
3379;SDS011;1703;51.964;7.642;2022-11-15T12:19:20;1.63;;;0.80;;
3379;SDS011;1703;51.964;7.642;2022-11-15T12:21:47;2.60;;;1.10;;
3379;SDS011;1703;51.964;7.642;2022-11-15T12:24:27;5.30;;;1.70;;
3379;SDS011;1703;51.964;7.642;2022-11-15T12:27:01;2.00;;;1.13;;
3379;SDS011;1703;51.964;7.642;2022-11-15T12:29:33;12.73;;;1.10;;
3379;SDS011;1703;51.964;7.642;2022-11-15T12:32:03;4.50;;;0.80;;
3379;SDS011;1703;51.964;7.642;2022-11-15T12:34:41;3.03;;;1.33;;
3379;SDS011;1703;51.964;7.642;2022-11-15T12:40:19;2.23;;;1.00;;
3379;SDS011;1703;51.964;7.642;2022-11-15T12:42:58;2.50;;;1.47;;
3379;SDS011;1703;51.964;7.642;2022-11-15T12:45:40;1.40;;;1.13;;
3379;SDS011;1703;51.964;7.642;2022-11-15T12:57:25;1.93;;;1.10;;
3379;SDS011;1703;51.964;7.642;2022-11-15T12:59:55;1.20;;;1.00;;
3379;SDS011;1703;51.964;7.642;2022-11-15T13:02:26;1.57;;;1.37;;
3379;SDS011;1703;51.964;7.642;2022-11-15T13:05:19;1.13;;;0.80;;
3379;SDS011;1703;51.964;7.642;2022-11-15T13:08:00;1.63;;;1.53;;
3379;SDS011;1703;51.964;7.642;2022-11-15T13:10:28;1.30;;;1.00;;
3379;SDS011;1703;51.964;7.642;2022-11-15T13:12:59;2.03;;;0.83;;
3379;SDS011;1703;51.964;7.642;2022-11-15T13:15:36;1.77;;;1.07;;
3379;SDS011;1703;51.964;7.642;2022-11-15T13:18:28;2.20;;;1.00;;
3379;SDS011;1703;51.964;7.642;2022-11-15T13:21:01;1.57;;;1.03;;
3379;SDS011;1703;51.964;7.642;2022-11-15T13:23:52;7.33;;;1.10;;
3379;SDS011;1703;51.964;7.642;2022-11-15T13:26:20;1.10;;;0.90;;
3379;SDS011;1703;51.964;7.642;2022-11-15T13:28:49;0.93;;;0.77;;
3379;SDS011;1703;51.964;7.642;2022-11-15T13:31:22;1.10;;;1.00;;
3379;SDS011;1703;51.964;7.642;2022-11-15T13:33:51;1.03;;;0.80;;
3379;SDS011;1703;51.964;7.642;2022-11-15T13:36:22;3.07;;;0.80;;
3379;SDS011;1703;51.964;7.642;2022-11-15T13:38:54;3.23;;;0.97;;
3379;SDS011;1703;51.964;7.642;2022-11-15T13:41:27;3.90;;;1.10;;
3379;SDS011;1703;51.964;7.642;2022-11-15T13:43:56;2.13;;;0.90;;
3379;SDS011;1703;51.964;7.642;2022-11-15T13:46:25;1.10;;;0.80;;
3379;SDS011;1703;51.964;7.642;2022-11-15T13:48:53;2.57;;;1.20;;
3379;SDS011;1703;51.964;7.642;2022-11-15T13:51:24;1.50;;;0.87;;
3379;SDS011;1703;51.964;7.642;2022-11-15T13:53:58;3.17;;;1.77;;
3379;SDS011;1703;51.964;7.642;2022-11-15T13:56:30;3.83;;;1.43;;
3379;SDS011;1703;51.964;7.642;2022-11-15T13:59:00;2.70;;;1.00;;
3379;SDS011;1703;51.964;7.642;2022-11-15T14:01:34;1.00;;;0.80;;
3379;SDS011;1703;51.964;7.642;2022-11-15T14:04:00;1.70;;;0.80;;
3379;SDS011;1703;51.964;7.642;2022-11-15T14:06:29;5.53;;;1.00;;
3379;SDS011;1703;51.964;7.642;2022-11-15T14:09:01;1.10;;;1.00;;
3379;SDS011;1703;51.964;7.642;2022-11-15T14:11:50;3.87;;;1.23;;
3379;SDS011;1703;51.964;7.642;2022-11-15T14:14:20;1.13;;;1.07;;
3379;SDS011;1703;51.964;7.642;2022-11-15T14:16:50;1.93;;;1.60;;
3379;SDS011;1703;51.964;7.642;2022-11-15T14:19:37;3.17;;;1.30;;
3379;SDS011;1703;51.964;7.642;2022-11-15T14:22:10;2.00;;;0.97;;
3379;SDS011;1703;51.964;7.642;2022-11-15T14:24:38;0.90;;;0.80;;
3379;SDS011;1703;51.964;7.642;2022-11-15T14:27:15;1.50;;;0.90;;
3379;SDS011;1703;51.964;7.642;2022-11-15T14:29:45;3.47;;;0.97;;
3379;SDS011;1703;51.964;7.642;2022-11-15T14:32:14;1.53;;;1.10;;
3379;SDS011;1703;51.964;7.642;2022-11-15T14:34:43;1.00;;;0.90;;
3379;SDS011;1703;51.964;7.642;2022-11-15T14:37:16;3.63;;;1.70;;
3379;SDS011;1703;51.964;7.642;2022-11-15T14:39:46;2.60;;;1.43;;
3379;SDS011;1703;51.964;7.642;2022-11-15T14:42:14;2.80;;;1.30;;
3379;SDS011;1703;51.964;7.642;2022-11-15T14:44:40;3.97;;;1.10;;
3379;SDS011;1703;51.964;7.642;2022-11-15T14:49:35;1.13;;;0.90;;
3379;SDS011;1703;51.964;7.642;2022-11-15T14:52:02;1.20;;;1.10;;
3379;SDS011;1703;51.964;7.642;2022-11-15T14:54:33;2.30;;;0.93;;
3379;SDS011;1703;51.964;7.642;2022-11-15T14:57:00;1.13;;;0.90;;
3379;SDS011;1703;51.964;7.642;2022-11-15T14:59:27;4.20;;;1.10;;
3379;SDS011;1703;51.964;7.642;2022-11-15T15:01:54;1.67;;;1.20;;
3379;SDS011;1703;51.964;7.642;2022-11-15T15:04:20;1.30;;;1.10;;
3379;SDS011;1703;51.964;7.642;2022-11-15T15:06:49;4.77;;;1.33;;
3379;SDS011;1703;51.964;7.642;2022-11-15T15:09:15;4.60;;;1.27;;
3379;SDS011;1703;51.964;7.642;2022-11-15T15:11:42;2.37;;;1.00;;
3379;SDS011;1703;51.964;7.642;2022-11-15T15:14:09;2.70;;;1.00;;
3379;SDS011;1703;51.964;7.642;2022-11-15T15:16:37;7.40;;;1.13;;
3379;SDS011;1703;51.964;7.642;2022-11-15T15:19:04;4.03;;;1.10;;
3379;SDS011;1703;51.964;7.642;2022-11-15T15:21:30;1.23;;;0.70;;
3379;SDS011;1703;51.964;7.642;2022-11-15T15:23:59;1.90;;;1.13;;
3379;SDS011;1703;51.964;7.642;2022-11-15T15:26:25;2.93;;;0.90;;
3379;SDS011;1703;51.964;7.642;2022-11-15T15:28:52;4.63;;;0.90;;
3379;SDS011;1703;51.964;7.642;2022-11-15T15:31:19;1.70;;;1.03;;
3379;SDS011;1703;51.964;7.642;2022-11-15T15:33:46;2.30;;;1.17;;
3379;SDS011;1703;51.964;7.642;2022-11-15T15:36:14;2.97;;;1.03;;
3379;SDS011;1703;51.964;7.642;2022-11-15T15:38:43;5.50;;;1.10;;
3379;SDS011;1703;51.964;7.642;2022-11-15T15:41:13;3.03;;;1.47;;
3379;SDS011;1703;51.964;7.642;2022-11-15T15:43:41;2.33;;;1.33;;
3379;SDS011;1703;51.964;7.642;2022-11-15T15:46:08;1.43;;;1.30;;
3379;SDS011;1703;51.964;7.642;2022-11-15T15:48:36;2.37;;;1.30;;
3379;SDS011;1703;51.964;7.642;2022-11-15T15:51:04;4.10;;;2.17;;
3379;SDS011;1703;51.964;7.642;2022-11-15T15:53:31;3.27;;;2.00;;
3379;SDS011;1703;51.964;7.642;2022-11-15T15:55:58;2.93;;;1.70;;
3379;SDS011;1703;51.964;7.642;2022-11-15T15:58:26;3.00;;;1.10;;
3379;SDS011;1703;51.964;7.642;2022-11-15T16:00:53;11.67;;;2.00;;
3379;SDS011;1703;51.964;7.642;2022-11-15T16:03:20;5.70;;;1.70;;
3379;SDS011;1703;51.964;7.642;2022-11-15T16:05:47;7.63;;;1.40;;
3379;SDS011;1703;51.964;7.642;2022-11-15T16:08:17;12.27;;;3.30;;
3379;SDS011;1703;51.964;7.642;2022-11-15T16:10:45;2.93;;;2.07;;
3379;SDS011;1703;51.964;7.642;2022-11-15T16:13:12;5.00;;;2.40;;
3379;SDS011;1703;51.964;7.642;2022-11-15T16:15:41;2.03;;;1.83;;
3379;SDS011;1703;51.964;7.642;2022-11-15T16:18:12;6.80;;;2.97;;
3379;SDS011;1703;51.964;7.642;2022-11-15T16:20:42;8.70;;;2.60;;
3379;SDS011;1703;51.964;7.642;2022-11-15T16:23:10;2.70;;;2.00;;
3379;SDS011;1703;51.964;7.642;2022-11-15T16:25:40;5.63;;;2.17;;
3379;SDS011;1703;51.964;7.642;2022-11-15T16:28:16;2.37;;;1.87;;
3379;SDS011;1703;51.964;7.642;2022-11-15T16:30:46;4.20;;;2.20;;
3379;SDS011;1703;51.964;7.642;2022-11-15T16:33:13;3.13;;;2.40;;
3379;SDS011;1703;51.964;7.642;2022-11-15T16:35:40;1.90;;;1.70;;
3379;SDS011;1703;51.964;7.642;2022-11-15T16:38:07;3.90;;;1.93;;
3379;SDS011;1703;51.964;7.642;2022-11-15T16:40:39;2.37;;;2.00;;
3379;SDS011;1703;51.964;7.642;2022-11-15T16:43:05;6.00;;;2.70;;
3379;SDS011;1703;51.964;7.642;2022-11-15T16:45:33;6.77;;;2.90;;
3379;SDS011;1703;51.964;7.642;2022-11-15T16:48:02;4.37;;;2.90;;
3379;SDS011;1703;51.964;7.642;2022-11-15T16:50:29;5.17;;;3.40;;
3379;SDS011;1703;51.964;7.642;2022-11-15T16:52:59;3.07;;;2.27;;
3379;SDS011;1703;51.964;7.642;2022-11-15T16:55:27;2.57;;;2.37;;